createdAt,value
2018-03-03T00:00:23.879Z,118.20
2018-03-03T00:02:52.293Z,102.63
2018-03-03T00:05:21.506Z,127.73
2018-03-03T00:07:50.863Z,113.60
2018-03-03T00:10:19.265Z,113.20
2018-03-03T00:12:47.676Z,110.80
2018-03-03T00:15:16.097Z,111.33
2018-03-03T00:17:44.495Z,108.87
2018-03-03T00:20:12.921Z,117.80
2018-03-03T00:22:41.247Z,110.73
2018-03-03T00:25:09.320Z,113.63
2018-03-03T00:27:37.746Z,118.17
2018-03-03T00:30:06.152Z,123.53
2018-03-03T00:32:34.593Z,123.83
2018-03-03T00:35:03.006Z,122.03
2018-03-03T00:37:31.601Z,115.97
2018-03-03T00:39:59.655Z,120.97
2018-03-03T00:42:28.063Z,118.20
2018-03-03T00:44:56.488Z,125.10
2018-03-03T00:47:25.633Z,114.53
2018-03-03T00:49:54.051Z,124.43
2018-03-03T00:52:22.439Z,108.40
2018-03-03T00:54:50.872Z,119.17
2018-03-03T00:57:19.278Z,110.47
2018-03-03T00:59:47.694Z,131.90
2018-03-03T01:02:16.120Z,112.40
2018-03-03T01:04:45.299Z,139.90
2018-03-03T01:07:13.738Z,120.90
2018-03-03T01:09:42.169Z,114.37
2018-03-03T01:12:11.348Z,122.23
2018-03-03T01:14:42.696Z,118.07
2018-03-03T01:17:11.130Z,120.17
2018-03-03T01:19:39.533Z,121.07
2018-03-03T01:22:07.951Z,111.97
2018-03-03T01:24:37.106Z,132.60
2018-03-03T01:27:05.508Z,117.13
2018-03-03T01:29:33.935Z,135.93
2018-03-03T01:32:02.326Z,122.70
2018-03-03T01:34:30.731Z,110.97
2018-03-03T01:36:59.155Z,118.50
2018-03-03T01:39:27.564Z,109.10
2018-03-03T01:41:56.005Z,115.93
2018-03-03T01:44:25.050Z,127.73
2018-03-03T01:46:53.442Z,100.33
2018-03-03T01:49:21.876Z,106.80
2018-03-03T01:51:50.313Z,103.27
2018-03-03T01:54:19.466Z,98.83
2018-03-03T01:56:47.884Z,107.67
2018-03-03T01:59:17.056Z,102.43
2018-03-03T02:01:45.478Z,103.93
2018-03-03T02:04:13.890Z,104.40
2018-03-03T02:06:42.300Z,109.57
2018-03-03T02:09:10.732Z,116.97
2018-03-03T02:11:39.123Z,108.67
2018-03-03T02:14:07.533Z,105.63
2018-03-03T02:16:35.947Z,108.00
2018-03-03T02:19:04.368Z,99.67
2018-03-03T02:21:32.976Z,103.93
2018-03-03T02:24:01.375Z,102.93
2018-03-03T02:26:29.836Z,118.00
2018-03-03T02:28:58.345Z,98.47
2018-03-03T02:31:26.737Z,114.20
2018-03-03T02:33:55.263Z,118.10
2018-03-03T02:36:23.986Z,104.37
2018-03-03T02:38:53.554Z,121.30
2018-03-03T02:41:21.970Z,115.80
2018-03-03T02:43:51.173Z,112.53
2018-03-03T02:46:20.344Z,111.47
2018-03-03T02:48:48.743Z,108.90
2018-03-03T02:51:17.934Z,107.80
2018-03-03T02:53:47.094Z,109.20
2018-03-03T02:56:15.501Z,115.20
2018-03-03T02:58:43.775Z,109.07
2018-03-03T03:01:12.185Z,129.07
2018-03-03T03:03:40.603Z,111.80
2018-03-03T03:06:09.048Z,116.63
2018-03-03T03:08:37.448Z,113.47
2018-03-03T03:11:05.838Z,102.30
2018-03-03T03:13:34.273Z,130.43
2018-03-03T03:16:02.673Z,112.90
2018-03-03T03:18:31.072Z,111.63
2018-03-03T03:20:59.514Z,100.57
2018-03-03T03:23:27.737Z,104.10
2018-03-03T03:25:56.127Z,114.97
2018-03-03T03:28:25.495Z,106.77
2018-03-03T03:30:54.668Z,112.03
2018-03-03T03:33:23.173Z,105.93
2018-03-03T03:35:51.597Z,125.00
2018-03-03T03:38:20.794Z,109.23
2018-03-03T03:40:49.964Z,106.63
2018-03-03T03:43:18.399Z,113.57
2018-03-03T03:45:46.819Z,112.13
2018-03-03T03:48:15.248Z,105.80
2018-03-03T03:50:43.643Z,110.40
2018-03-03T03:53:12.038Z,111.93
2018-03-03T03:55:40.463Z,103.53
2018-03-03T03:58:09.623Z,106.23
2018-03-03T04:00:38.044Z,92.30
2018-03-03T04:03:06.462Z,90.93
2018-03-03T04:05:34.875Z,94.73
2018-03-03T04:08:03.285Z,92.63
2018-03-03T04:10:31.712Z,94.97
2018-03-03T04:13:00.106Z,100.43
2018-03-03T04:15:28.503Z,101.27
2018-03-03T04:17:57.697Z,104.50
2018-03-03T04:20:26.856Z,93.67
2018-03-03T04:22:56.046Z,86.77
2018-03-03T04:25:25.101Z,87.30
2018-03-03T04:27:54.012Z,92.50
2018-03-03T04:30:22.412Z,84.53
2018-03-03T04:32:50.648Z,83.63
2018-03-03T04:35:18.859Z,80.70
2018-03-03T04:37:47.069Z,89.50
2018-03-03T04:40:16.251Z,89.27
2018-03-03T04:42:44.643Z,91.50
2018-03-03T04:45:13.653Z,87.90
2018-03-03T04:47:41.871Z,82.13
2018-03-03T04:50:10.070Z,80.13
2018-03-03T04:52:38.308Z,90.97
2018-03-03T04:55:06.510Z,85.70
2018-03-03T04:57:34.739Z,76.67
2018-03-03T05:03:26.526Z,91.30
2018-03-03T05:06:01.318Z,81.80
2018-03-03T05:08:30.001Z,105.93
2018-03-03T05:10:58.206Z,91.17
2018-03-03T05:13:46.083Z,88.43
2018-03-03T05:16:23.136Z,85.63
2018-03-03T05:18:56.925Z,85.10
2018-03-03T05:21:30.906Z,84.63
2018-03-03T05:24:04.679Z,88.60
2018-03-03T05:26:38.653Z,86.10
2018-03-03T05:29:21.774Z,74.80
2018-03-03T05:31:55.724Z,63.73
2018-03-03T05:34:38.866Z,68.07
2018-03-03T05:37:26.914Z,74.30
2018-03-03T05:40:01.687Z,81.07
2018-03-03T05:42:36.310Z,80.10
2018-03-03T05:45:11.544Z,76.60
2018-03-03T05:47:43.133Z,73.93
2018-03-03T05:53:31.970Z,75.73
2018-03-03T05:56:04.527Z,72.23
2018-03-03T05:58:47.669Z,73.17
2018-03-03T06:01:21.571Z,66.53
2018-03-03T06:03:54.566Z,77.50
2018-03-03T06:06:32.215Z,73.37
2018-03-03T06:09:04.032Z,68.33
2018-03-03T06:11:33.013Z,76.77
2018-03-03T06:14:01.997Z,75.83
2018-03-03T06:16:30.440Z,67.60
2018-03-03T06:18:58.834Z,71.13
2018-03-03T06:21:27.226Z,73.43
2018-03-03T06:23:56.426Z,64.83
2018-03-03T06:26:24.824Z,62.47
2018-03-03T06:28:53.987Z,58.53
2018-03-03T06:31:22.415Z,61.47
2018-03-03T06:33:50.820Z,71.93
2018-03-03T06:36:19.228Z,72.90
2018-03-03T06:38:47.648Z,80.67
2018-03-03T06:41:16.050Z,88.47
2018-03-03T06:43:44.458Z,90.77
2018-03-03T06:46:12.897Z,70.37
2018-03-03T06:48:41.502Z,71.67
2018-03-03T06:51:09.943Z,76.13
2018-03-03T06:53:38.331Z,81.30
2018-03-03T06:56:06.760Z,75.77
2018-03-03T06:58:35.962Z,67.80
2018-03-03T07:01:05.152Z,61.33
2018-03-03T07:03:33.566Z,64.80
2018-03-03T07:06:02.262Z,55.90
2018-03-03T07:08:30.481Z,56.97
2018-03-03T07:10:58.924Z,54.60
2018-03-03T07:13:27.143Z,58.63
2018-03-03T07:15:55.398Z,51.10
2018-03-03T07:18:24.015Z,54.90
2018-03-03T07:20:53.258Z,54.33
2018-03-03T07:23:21.688Z,48.53
2018-03-03T07:25:50.857Z,49.60
2018-03-03T07:28:19.285Z,48.87
2018-03-03T07:30:48.640Z,45.73
2018-03-03T07:33:17.031Z,45.33
2018-03-03T07:35:46.221Z,55.10
2018-03-03T07:38:14.629Z,50.43
2018-03-03T07:40:43.744Z,48.00
2018-03-03T07:43:12.136Z,45.87
2018-03-03T07:45:40.532Z,38.63
2018-03-03T07:48:08.948Z,44.97
2018-03-03T07:50:37.970Z,44.27
2018-03-03T07:53:06.374Z,38.73
2018-03-03T07:55:34.778Z,43.10
2018-03-03T07:58:03.998Z,45.53
2018-03-03T08:00:32.437Z,45.37
2018-03-03T08:03:00.677Z,43.20
2018-03-03T08:05:28.896Z,33.80
2018-03-03T08:07:57.104Z,53.27
2018-03-03T08:10:26.094Z,58.27
2018-03-03T08:12:54.521Z,30.10
2018-03-03T08:15:23.277Z,23.93
2018-03-03T08:17:51.678Z,23.80
2018-03-03T08:20:20.257Z,43.83
2018-03-03T08:22:48.696Z,33.37
2018-03-03T08:25:17.114Z,47.63
2018-03-03T08:27:45.534Z,43.47
2018-03-03T08:30:14.709Z,64.03
2018-03-03T08:32:43.117Z,68.27
2018-03-03T08:35:12.423Z,43.50
2018-03-03T08:37:40.634Z,27.20
2018-03-03T08:40:09.060Z,32.67
2018-03-03T08:42:38.224Z,13.43
2018-03-03T08:45:06.662Z,63.43
2018-03-03T08:47:35.093Z,52.30
2018-03-03T08:50:03.524Z,64.77
2018-03-03T08:52:31.781Z,49.27
2018-03-03T08:55:00.177Z,60.40
2018-03-03T08:57:28.572Z,47.70
2018-03-03T08:59:56.802Z,41.10
2018-03-03T09:02:25.958Z,50.37
2018-03-03T09:04:54.357Z,47.27
2018-03-03T09:07:24.186Z,59.67
2018-03-03T09:09:52.617Z,64.10
2018-03-03T09:12:21.064Z,38.20
2018-03-03T09:14:49.497Z,60.03
2018-03-03T09:17:17.940Z,55.67
2018-03-03T09:19:46.353Z,51.50
2018-03-03T09:22:14.759Z,56.53
2018-03-03T09:24:43.182Z,58.20
2018-03-03T09:27:11.584Z,49.27
2018-03-03T09:29:39.995Z,60.27
2018-03-03T09:32:08.396Z,51.07
2018-03-03T09:34:36.826Z,47.80
2018-03-03T09:37:06.025Z,63.73
2018-03-03T09:39:35.188Z,59.37
2018-03-03T09:42:03.624Z,49.90
2018-03-03T09:44:32.972Z,64.00
2018-03-03T09:47:01.417Z,61.63
2018-03-03T09:49:29.638Z,38.37
2018-03-03T09:51:58.038Z,47.90
2018-03-03T09:54:27.228Z,62.27
2018-03-03T09:56:56.392Z,62.77
2018-03-03T09:59:25.532Z,62.80
2018-03-03T10:02:05.922Z,55.10
2018-03-03T10:04:24.147Z,56.07
2018-03-03T10:06:52.544Z,53.60
2018-03-03T10:09:20.969Z,60.40
2018-03-03T10:11:49.938Z,53.53
2018-03-03T10:14:18.341Z,47.33
2018-03-03T10:16:47.525Z,54.73
2018-03-03T10:19:15.929Z,51.33
2018-03-03T10:21:44.328Z,57.87
2018-03-03T10:24:12.747Z,63.33
2018-03-03T10:26:41.155Z,61.73
2018-03-03T10:29:10.335Z,56.93
2018-03-03T10:31:39.487Z,58.43
2018-03-03T10:34:07.908Z,48.67
2018-03-03T10:36:37.068Z,54.73
2018-03-03T10:39:04.806Z,58.07
2018-03-03T10:41:33.236Z,53.63
2018-03-03T10:44:01.628Z,50.50
2018-03-03T10:46:30.774Z,50.03
2018-03-03T10:48:59.218Z,45.10
2018-03-03T10:51:27.613Z,49.10
2018-03-03T10:53:56.388Z,42.43
2018-03-03T10:56:25.146Z,46.67
2018-03-03T10:58:54.205Z,45.03
2018-03-03T11:01:22.608Z,42.57
2018-03-03T11:03:51.015Z,43.67
2018-03-03T11:06:20.188Z,44.27
2018-03-03T11:08:49.376Z,33.93
2018-03-03T11:11:17.963Z,16.87
2018-03-03T11:13:46.397Z,52.13
2018-03-03T11:16:14.789Z,20.57
2018-03-03T11:18:43.183Z,45.90
2018-03-03T11:21:11.592Z,44.53
2018-03-03T11:23:40.779Z,42.43
2018-03-03T11:26:10.010Z,25.67
2018-03-03T11:28:38.229Z,49.43
2018-03-03T11:31:06.639Z,49.10
2018-03-03T11:33:35.792Z,30.90
2018-03-03T11:36:04.170Z,27.90
2018-03-03T11:38:32.601Z,46.57
2018-03-03T11:41:00.994Z,38.67
2018-03-03T11:43:29.430Z,39.53
2018-03-03T11:45:58.589Z,41.60
2018-03-03T11:48:27.751Z,42.30
2018-03-03T11:50:56.354Z,36.07
2018-03-03T11:53:24.913Z,43.87
2018-03-03T11:55:53.510Z,39.83
2018-03-03T11:58:21.910Z,26.13
2018-03-03T12:00:50.117Z,45.43
2018-03-03T12:03:19.304Z,46.83
2018-03-03T12:05:47.705Z,49.97
2018-03-03T12:08:16.903Z,43.83
2018-03-03T12:10:46.060Z,52.97
2018-03-03T12:13:14.465Z,47.53
2018-03-03T12:15:43.648Z,49.63
2018-03-03T12:18:12.032Z,45.33
2018-03-03T12:20:40.441Z,47.17
2018-03-03T12:23:08.847Z,54.03
2018-03-03T12:25:37.275Z,50.37
2018-03-03T12:28:06.295Z,51.23
2018-03-03T12:30:34.703Z,50.60
2018-03-03T12:33:03.281Z,44.90
2018-03-03T12:35:31.693Z,45.80
2018-03-03T12:37:59.896Z,36.87
2018-03-03T12:40:28.307Z,38.17
2018-03-03T12:42:56.705Z,38.60
2018-03-03T12:45:25.412Z,37.53
2018-03-03T12:47:54.592Z,42.20
2018-03-03T12:50:23.009Z,44.43
2018-03-03T12:52:51.406Z,41.27
2018-03-03T12:55:19.798Z,35.53
2018-03-03T12:57:48.015Z,34.30
2018-03-03T13:00:17.188Z,38.47
2018-03-03T13:02:45.605Z,36.60
2018-03-03T13:05:14.760Z,40.57
2018-03-03T13:07:43.180Z,33.37
2018-03-03T13:10:12.332Z,35.70
2018-03-03T13:12:40.730Z,34.40
2018-03-03T13:15:09.328Z,32.13
2018-03-03T13:17:38.508Z,33.70
2018-03-03T13:20:06.920Z,30.53
2018-03-03T13:22:35.304Z,36.60
2018-03-03T13:25:03.703Z,34.70
2018-03-03T13:27:32.160Z,38.20
2018-03-03T13:30:00.717Z,34.37
2018-03-03T13:32:29.876Z,35.27
2018-03-03T13:34:58.290Z,32.17
2018-03-03T13:37:27.457Z,31.60
2018-03-03T13:39:55.848Z,32.47
2018-03-03T13:42:24.328Z,28.67
2018-03-03T13:44:52.737Z,29.93
2018-03-03T13:47:21.148Z,38.80
2018-03-03T13:49:49.540Z,32.20
2018-03-03T13:52:17.971Z,34.40
2018-03-03T13:54:46.398Z,39.57
2018-03-03T13:57:14.806Z,39.30
2018-03-03T13:59:43.996Z,43.63
2018-03-03T14:02:13.182Z,43.37
2018-03-03T14:04:41.609Z,41.60
2018-03-03T14:07:10.019Z,48.37
2018-03-03T14:09:38.431Z,45.03
2018-03-03T14:12:07.623Z,46.10
2018-03-03T14:14:36.184Z,42.53
2018-03-03T14:17:04.596Z,48.33
2018-03-03T14:19:33.770Z,47.43
2018-03-03T14:22:02.192Z,45.70
2018-03-03T14:24:30.574Z,42.27
2018-03-03T14:26:59.002Z,43.63
2018-03-03T14:29:27.391Z,45.60
2018-03-03T14:31:56.575Z,45.77
2018-03-03T14:34:25.125Z,41.60
2018-03-03T14:36:54.422Z,42.87
2018-03-03T14:39:22.826Z,38.53
2018-03-03T14:41:51.219Z,46.37
2018-03-03T14:44:19.468Z,44.20
2018-03-03T14:46:48.625Z,47.60
2018-03-03T14:49:17.008Z,43.37
2018-03-03T14:51:45.429Z,48.53
2018-03-03T14:54:13.826Z,50.33
2018-03-03T14:56:42.259Z,49.33
2018-03-03T14:59:10.686Z,46.23
2018-03-03T15:01:39.085Z,41.00
2018-03-03T15:04:07.475Z,45.80
2018-03-03T15:06:35.898Z,49.20
2018-03-03T15:09:03.455Z,46.30
2018-03-03T15:11:32.820Z,48.30
2018-03-03T15:14:01.257Z,44.70
2018-03-03T15:16:29.659Z,53.50
2018-03-03T15:18:58.063Z,55.53
2018-03-03T15:21:26.477Z,50.40
2018-03-03T15:23:55.545Z,48.07
2018-03-03T15:26:24.728Z,47.60
2018-03-03T15:28:54.422Z,50.37
2018-03-03T15:31:22.863Z,49.40
2018-03-03T15:33:51.255Z,56.33
2018-03-03T15:36:19.667Z,48.50
2018-03-03T15:38:48.076Z,53.47
2018-03-03T15:41:16.473Z,49.17
2018-03-03T15:43:44.897Z,52.87
2018-03-03T15:46:13.292Z,57.87
2018-03-03T15:48:42.482Z,59.10
2018-03-03T15:51:11.673Z,52.47
2018-03-03T15:53:39.773Z,50.47
2018-03-03T15:56:08.172Z,58.23
2018-03-03T15:58:36.565Z,54.00
2018-03-03T16:01:04.997Z,58.50
2018-03-03T16:03:33.959Z,52.97
2018-03-03T16:06:02.396Z,57.43
2018-03-03T16:08:30.789Z,56.63
2018-03-03T16:10:59.195Z,58.80
2018-03-03T16:13:27.637Z,53.33
2018-03-03T16:15:56.830Z,58.07
2018-03-03T16:18:25.219Z,63.33
2018-03-03T16:20:53.705Z,56.37
2018-03-03T16:23:22.100Z,55.53
2018-03-03T16:25:50.506Z,65.33
2018-03-03T16:28:19.676Z,60.47
2018-03-03T16:30:48.082Z,76.00
2018-03-03T16:33:17.285Z,70.03
2018-03-03T16:35:45.698Z,70.73
2018-03-03T16:38:14.101Z,72.30
2018-03-03T16:40:42.508Z,72.93
2018-03-03T16:43:11.661Z,77.77
2018-03-03T16:45:40.076Z,71.47
2018-03-03T16:48:09.237Z,78.87
2018-03-03T16:50:37.674Z,78.17
2018-03-03T16:53:05.871Z,79.57
2018-03-03T16:55:34.270Z,78.60
2018-03-03T16:58:02.694Z,75.53
2018-03-03T17:00:31.867Z,78.83
2018-03-03T17:03:00.264Z,71.80
2018-03-03T17:05:29.467Z,75.97
2018-03-03T17:07:57.851Z,61.90
2018-03-03T17:10:27.256Z,67.63
2018-03-03T17:12:56.332Z,58.50
2018-03-03T17:15:26.305Z,56.53
2018-03-03T17:17:54.716Z,56.10
2018-03-03T17:20:24.530Z,39.57
2018-03-03T17:22:53.754Z,37.87
2018-03-03T17:25:22.347Z,30.27
2018-03-03T17:27:50.756Z,35.63
2018-03-03T17:30:18.963Z,37.00
2018-03-03T17:32:48.172Z,27.67
2018-03-03T17:35:16.575Z,37.03
2018-03-03T17:37:45.751Z,40.00
2018-03-03T17:40:14.177Z,40.37
2018-03-03T17:42:42.625Z,38.70
2018-03-03T17:45:11.020Z,35.20
2018-03-03T17:47:39.426Z,38.97
2018-03-03T17:50:07.876Z,43.97
2018-03-03T17:52:36.281Z,42.87
2018-03-03T17:55:04.668Z,38.47
2018-03-03T17:57:33.861Z,37.20
2018-03-03T18:00:02.845Z,44.40
2018-03-03T18:02:31.235Z,46.93
2018-03-03T18:05:00.419Z,43.63
2018-03-03T18:07:28.817Z,23.73
2018-03-03T18:09:57.996Z,47.27
2018-03-03T18:12:26.673Z,37.13
2018-03-03T18:14:55.243Z,24.40
2018-03-03T18:17:23.722Z,50.07
2018-03-03T18:19:52.138Z,43.47
2018-03-03T18:22:21.303Z,45.53
2018-03-03T18:24:49.728Z,44.33
2018-03-03T18:27:18.125Z,48.27
2018-03-03T18:29:46.344Z,44.57
2018-03-03T18:32:14.446Z,43.10
2018-03-03T18:34:43.812Z,44.90
2018-03-03T18:37:12.241Z,46.13
2018-03-03T18:39:40.658Z,50.67
2018-03-03T18:42:09.081Z,50.07
2018-03-03T18:44:37.500Z,51.33
2018-03-03T18:47:06.072Z,49.83
2018-03-03T18:49:34.468Z,41.87
2018-03-03T18:52:02.902Z,41.57
2018-03-03T18:54:31.304Z,31.33
2018-03-03T18:56:59.715Z,25.33
2018-03-03T18:59:28.129Z,39.97
2018-03-03T19:01:57.473Z,51.17
2018-03-03T19:04:26.665Z,45.67
2018-03-03T19:06:55.865Z,57.93
2018-03-03T19:09:25.203Z,59.03
2018-03-03T19:11:55.001Z,60.23
2018-03-03T19:14:24.182Z,51.90
2018-03-03T19:16:52.584Z,39.63
2018-03-03T19:19:21.784Z,50.23
2018-03-03T19:21:50.948Z,57.67
2018-03-03T19:24:19.352Z,64.37
2018-03-03T19:26:48.536Z,53.93
2018-03-03T19:29:16.952Z,56.03
2018-03-03T19:31:45.353Z,59.70
2018-03-03T19:34:13.757Z,50.93
2018-03-03T19:36:42.195Z,52.20
2018-03-03T19:39:10.640Z,42.03
2018-03-03T19:41:39.214Z,64.90
2018-03-03T19:44:08.377Z,54.83
2018-03-03T19:46:36.793Z,53.93
2018-03-03T19:49:05.957Z,66.83
2018-03-03T19:51:34.180Z,42.93
2018-03-03T19:54:02.594Z,72.43
2018-03-03T19:56:31.780Z,64.30
2018-03-03T19:58:59.982Z,45.90
2018-03-03T20:01:28.395Z,81.03
2018-03-03T20:03:57.600Z,58.07
2018-03-03T20:06:26.000Z,35.17
2018-03-03T20:08:55.079Z,46.40
2018-03-03T20:11:25.145Z,71.30
2018-03-03T20:13:53.874Z,57.27
2018-03-03T20:16:22.424Z,50.90
2018-03-03T20:18:50.808Z,91.67
2018-03-03T20:21:19.206Z,86.87
2018-03-03T20:23:47.640Z,61.77
2018-03-03T20:26:16.046Z,62.90
2018-03-03T20:28:45.238Z,94.77
2018-03-03T20:31:14.395Z,73.57
2018-03-03T20:33:42.807Z,91.73
2018-03-03T20:36:11.239Z,98.80
2018-03-03T20:38:39.650Z,97.53
2018-03-03T20:41:08.092Z,100.57
2018-03-03T20:43:36.494Z,99.70
2018-03-03T20:46:04.906Z,102.57
2018-03-03T20:48:34.113Z,105.97
2018-03-03T20:51:03.293Z,105.20
2018-03-03T20:53:31.693Z,105.10
2018-03-03T20:56:00.116Z,107.53
2018-03-03T20:58:28.518Z,106.00
2018-03-03T21:00:56.940Z,103.03
2018-03-03T21:03:25.338Z,104.97
2018-03-03T21:05:53.864Z,106.17
2018-03-03T21:08:22.259Z,101.80
2018-03-03T21:10:51.241Z,106.10
2018-03-03T21:13:20.250Z,107.63
2018-03-03T21:15:48.659Z,108.37
2018-03-03T21:18:17.120Z,115.53
2018-03-03T21:20:45.526Z,109.37
2018-03-03T21:23:13.940Z,104.37
2018-03-03T21:25:43.136Z,112.23
2018-03-03T21:28:12.302Z,108.63
2018-03-03T21:30:40.727Z,115.33
2018-03-03T21:33:09.114Z,116.23
2018-03-03T21:35:37.509Z,114.33
2018-03-03T21:38:05.939Z,123.40
2018-03-03T21:40:34.340Z,118.43
2018-03-03T21:43:02.744Z,118.37
2018-03-03T21:45:31.171Z,118.10
2018-03-03T21:47:59.679Z,115.27
2018-03-03T21:50:28.076Z,117.73
2018-03-03T21:52:57.590Z,123.97
2018-03-03T21:55:26.767Z,111.77
2018-03-03T21:57:56.044Z,124.33
2018-03-03T22:00:26.131Z,119.03
2018-03-03T22:02:54.888Z,113.87
2018-03-03T22:05:23.338Z,122.20
2018-03-03T22:07:51.756Z,122.63
2018-03-03T22:10:20.164Z,118.77
2018-03-03T22:12:48.586Z,110.37
2018-03-03T22:15:16.971Z,114.17
2018-03-03T22:17:45.408Z,108.80
2018-03-03T22:20:14.589Z,118.57
2018-03-03T22:22:43.783Z,107.07
2018-03-03T22:25:12.045Z,123.73
2018-03-03T22:27:40.441Z,122.30
2018-03-03T22:30:09.613Z,129.80
2018-03-03T22:32:38.032Z,115.53
2018-03-03T22:35:07.215Z,110.43
2018-03-03T22:37:36.408Z,107.00
2018-03-03T22:40:04.480Z,109.43
2018-03-03T22:42:33.652Z,109.17
2018-03-03T22:45:02.087Z,104.07
2018-03-03T22:47:30.484Z,115.13
2018-03-03T22:49:58.910Z,106.00
2018-03-03T22:52:27.361Z,110.57
2018-03-03T22:54:56.597Z,95.30
2018-03-03T22:57:26.480Z,95.80
2018-03-03T22:59:55.508Z,95.03
2018-03-03T23:02:24.620Z,89.90
2018-03-03T23:04:53.034Z,103.20
2018-03-03T23:07:21.273Z,106.43
2018-03-03T23:09:49.665Z,96.97
2018-03-03T23:12:18.120Z,108.47
2018-03-03T23:14:46.519Z,107.87
2018-03-03T23:17:14.904Z,97.53
2018-03-03T23:19:43.321Z,96.87
2018-03-03T23:22:11.767Z,88.43
2018-03-03T23:24:39.976Z,89.43
2018-03-03T23:27:08.367Z,92.93
2018-03-03T23:29:37.653Z,92.87
2018-03-03T23:32:06.092Z,89.53
2018-03-03T23:34:34.485Z,84.30
2018-03-03T23:37:02.911Z,95.83
2018-03-03T23:39:31.503Z,88.37
2018-03-03T23:41:59.897Z,99.40
2018-03-03T23:44:28.323Z,90.97
2018-03-03T23:46:56.831Z,91.27
2018-03-03T23:49:25.501Z,91.27
2018-03-03T23:51:54.670Z,89.67
2018-03-03T23:54:23.075Z,84.23
2018-03-03T23:56:52.271Z,86.20
2018-03-03T23:59:21.445Z,85.27
